sensor_id;sensor_type;location;lat;lon;timestamp;temperature;humidity
16666;DHT22;8446;50.998;6.250;2023-11-21T00:00:23;7.30;99.90
16666;DHT22;8446;50.998;6.250;2023-11-21T00:02:50;7.30;99.90
16666;DHT22;8446;50.998;6.250;2023-11-21T00:05:17;7.10;99.90
16666;DHT22;8446;50.998;6.250;2023-11-21T00:07:45;7.10;99.90
16666;DHT22;8446;50.998;6.250;2023-11-21T00:10:12;7.10;99.90
16666;DHT22;8446;50.998;6.250;2023-11-21T00:12:41;7.10;99.90
16666;DHT22;8446;50.998;6.250;2023-11-21T00:15:09;7.20;99.90
16666;DHT22;8446;50.998;6.250;2023-11-21T00:17:37;7.30;99.90
16666;DHT22;8446;50.998;6.250;2023-11-21T00:20:05;7.40;99.90
16666;DHT22;8446;50.998;6.250;2023-11-21T00:22:33;7.40;99.90
16666;DHT22;8446;50.998;6.250;2023-11-21T00:25:01;7.50;99.90
16666;DHT22;8446;50.998;6.250;2023-11-21T00:27:29;7.50;99.90
16666;DHT22;8446;50.998;6.250;2023-11-21T00:29:56;7.50;99.90
16666;DHT22;8446;50.998;6.250;2023-11-21T00:32:23;7.50;99.90
16666;DHT22;8446;50.998;6.250;2023-11-21T00:34:50;7.50;99.90
16666;DHT22;8446;50.998;6.250;2023-11-21T00:37:16;7.50;99.90
16666;DHT22;8446;50.998;6.250;2023-11-21T00:39:43;7.50;99.90
16666;DHT22;8446;50.998;6.250;2023-11-21T00:42:12;7.50;99.90
16666;DHT22;8446;50.998;6.250;2023-11-21T00:44:39;7.50;99.90
16666;DHT22;8446;50.998;6.250;2023-11-21T00:47:06;7.50;99.90
16666;DHT22;8446;50.998;6.250;2023-11-21T00:49:33;7.50;99.90
16666;DHT22;8446;50.998;6.250;2023-11-21T00:52:00;7.50;99.90
16666;DHT22;8446;50.998;6.250;2023-11-21T00:54:28;7.50;99.90
16666;DHT22;8446;50.998;6.250;2023-11-21T00:56:55;7.50;99.90
16666;DHT22;8446;50.998;6.250;2023-11-21T00:59:23;7.40;99.90
16666;DHT22;8446;50.998;6.250;2023-11-21T01:01:50;7.40;99.90
16666;DHT22;8446;50.998;6.250;2023-11-21T01:04:16;7.40;99.90
16666;DHT22;8446;50.998;6.250;2023-11-21T01:06:43;7.50;99.90
16666;DHT22;8446;50.998;6.250;2023-11-21T01:09:10;7.50;99.90
16666;DHT22;8446;50.998;6.250;2023-11-21T01:11:38;7.40;99.90
16666;DHT22;8446;50.998;6.250;2023-11-21T01:14:05;7.40;99.90
16666;DHT22;8446;50.998;6.250;2023-11-21T01:16:33;7.40;99.90
16666;DHT22;8446;50.998;6.250;2023-11-21T01:19:00;7.40;99.90
16666;DHT22;8446;50.998;6.250;2023-11-21T01:21:27;7.40;99.90
16666;DHT22;8446;50.998;6.250;2023-11-21T01:23:54;7.50;99.90
16666;DHT22;8446;50.998;6.250;2023-11-21T01:26:21;7.50;99.90
16666;DHT22;8446;50.998;6.250;2023-11-21T01:28:48;7.50;99.90
16666;DHT22;8446;50.998;6.250;2023-11-21T01:31:15;7.50;99.90
16666;DHT22;8446;50.998;6.250;2023-11-21T01:33:43;7.50;99.90
16666;DHT22;8446;50.998;6.250;2023-11-21T01:36:10;7.60;99.90
16666;DHT22;8446;50.998;6.250;2023-11-21T01:38:37;7.50;99.90
16666;DHT22;8446;50.998;6.250;2023-11-21T01:41:05;7.50;99.90
16666;DHT22;8446;50.998;6.250;2023-11-21T01:43:31;7.50;99.90
16666;DHT22;8446;50.998;6.250;2023-11-21T01:45:59;7.50;99.90
16666;DHT22;8446;50.998;6.250;2023-11-21T01:48:27;7.50;99.90
16666;DHT22;8446;50.998;6.250;2023-11-21T01:50:56;7.50;99.90
16666;DHT22;8446;50.998;6.250;2023-11-21T01:53:24;7.40;99.90
16666;DHT22;8446;50.998;6.250;2023-11-21T01:55:51;7.50;99.90
16666;DHT22;8446;50.998;6.250;2023-11-21T01:58:19;7.50;99.90
16666;DHT22;8446;50.998;6.250;2023-11-21T02:00:47;7.40;99.90
16666;DHT22;8446;50.998;6.250;2023-11-21T02:03:16;7.40;99.90
16666;DHT22;8446;50.998;6.250;2023-11-21T02:05:43;7.50;99.90
16666;DHT22;8446;50.998;6.250;2023-11-21T02:08:11;7.50;99.90
16666;DHT22;8446;50.998;6.250;2023-11-21T02:10:38;7.40;99.90
16666;DHT22;8446;50.998;6.250;2023-11-21T02:13:04;7.50;99.90
16666;DHT22;8446;50.998;6.250;2023-11-21T02:15:31;7.50;99.90
16666;DHT22;8446;50.998;6.250;2023-11-21T02:17:58;7.50;99.90
16666;DHT22;8446;50.998;6.250;2023-11-21T02:20:26;7.50;99.90
16666;DHT22;8446;50.998;6.250;2023-11-21T02:22:56;7.50;99.90
16666;DHT22;8446;50.998;6.250;2023-11-21T02:25:25;7.50;99.90
16666;DHT22;8446;50.998;6.250;2023-11-21T02:27:53;7.40;99.90
16666;DHT22;8446;50.998;6.250;2023-11-21T02:30:20;7.50;99.90
16666;DHT22;8446;50.998;6.250;2023-11-21T02:32:47;7.50;99.90
16666;DHT22;8446;50.998;6.250;2023-11-21T02:35:14;7.50;99.90
16666;DHT22;8446;50.998;6.250;2023-11-21T02:37:42;7.50;99.90
16666;DHT22;8446;50.998;6.250;2023-11-21T02:40:11;7.50;99.90
16666;DHT22;8446;50.998;6.250;2023-11-21T02:42:39;7.60;99.90
16666;DHT22;8446;50.998;6.250;2023-11-21T02:45:07;7.60;99.90
16666;DHT22;8446;50.998;6.250;2023-11-21T02:47:34;7.50;99.90
16666;DHT22;8446;50.998;6.250;2023-11-21T02:50:01;7.50;99.90
16666;DHT22;8446;50.998;6.250;2023-11-21T02:52:27;7.50;99.90
16666;DHT22;8446;50.998;6.250;2023-11-21T02:54:54;7.50;99.90
16666;DHT22;8446;50.998;6.250;2023-11-21T02:57:22;7.50;99.90
16666;DHT22;8446;50.998;6.250;2023-11-21T02:59:49;7.50;99.90
16666;DHT22;8446;50.998;6.250;2023-11-21T03:02:16;7.50;99.90
16666;DHT22;8446;50.998;6.250;2023-11-21T03:04:43;7.50;99.90
16666;DHT22;8446;50.998;6.250;2023-11-21T03:07:10;7.50;99.90
16666;DHT22;8446;50.998;6.250;2023-11-21T03:09:36;7.50;99.90
16666;DHT22;8446;50.998;6.250;2023-11-21T03:12:04;7.60;99.90
16666;DHT22;8446;50.998;6.250;2023-11-21T03:14:32;7.50;99.90
16666;DHT22;8446;50.998;6.250;2023-11-21T03:16:59;7.50;99.90
16666;DHT22;8446;50.998;6.250;2023-11-21T03:19:26;7.50;99.90
16666;DHT22;8446;50.998;6.250;2023-11-21T03:21:52;7.50;99.90
16666;DHT22;8446;50.998;6.250;2023-11-21T03:24:19;7.50;99.90
16666;DHT22;8446;50.998;6.250;2023-11-21T03:26:48;7.50;99.90
16666;DHT22;8446;50.998;6.250;2023-11-21T03:29:15;7.50;99.90
16666;DHT22;8446;50.998;6.250;2023-11-21T03:31:43;7.50;99.90
16666;DHT22;8446;50.998;6.250;2023-11-21T03:34:15;7.50;99.90
16666;DHT22;8446;50.998;6.250;2023-11-21T03:36:43;7.50;99.90
16666;DHT22;8446;50.998;6.250;2023-11-21T03:39:11;7.50;99.90
16666;DHT22;8446;50.998;6.250;2023-11-21T03:41:38;7.50;99.90
16666;DHT22;8446;50.998;6.250;2023-11-21T03:44:05;7.50;99.90
16666;DHT22;8446;50.998;6.250;2023-11-21T03:46:32;7.60;99.90
16666;DHT22;8446;50.998;6.250;2023-11-21T03:49:00;7.60;99.90
16666;DHT22;8446;50.998;6.250;2023-11-21T03:51:27;7.60;99.90
16666;DHT22;8446;50.998;6.250;2023-11-21T03:53:53;7.60;99.90
16666;DHT22;8446;50.998;6.250;2023-11-21T03:56:20;7.60;99.90
16666;DHT22;8446;50.998;6.250;2023-11-21T03:58:48;7.70;99.90
16666;DHT22;8446;50.998;6.250;2023-11-21T04:01:20;7.70;99.90
16666;DHT22;8446;50.998;6.250;2023-11-21T04:03:47;7.70;99.90
16666;DHT22;8446;50.998;6.250;2023-11-21T04:06:16;7.70;99.90
16666;DHT22;8446;50.998;6.250;2023-11-21T04:08:44;7.70;99.90
16666;DHT22;8446;50.998;6.250;2023-11-21T04:11:11;7.70;99.90
16666;DHT22;8446;50.998;6.250;2023-11-21T04:13:38;7.70;99.90
16666;DHT22;8446;50.998;6.250;2023-11-21T04:16:05;7.70;99.90
16666;DHT22;8446;50.998;6.250;2023-11-21T04:18:33;7.70;99.90
16666;DHT22;8446;50.998;6.250;2023-11-21T04:21:00;7.70;99.90
16666;DHT22;8446;50.998;6.250;2023-11-21T04:23:29;7.70;99.90
16666;DHT22;8446;50.998;6.250;2023-11-21T04:25:55;7.80;99.90
16666;DHT22;8446;50.998;6.250;2023-11-21T04:28:22;7.70;99.90
16666;DHT22;8446;50.998;6.250;2023-11-21T04:30:49;7.70;99.90
16666;DHT22;8446;50.998;6.250;2023-11-21T04:33:16;7.80;99.90
16666;DHT22;8446;50.998;6.250;2023-11-21T04:35:43;7.70;99.90
16666;DHT22;8446;50.998;6.250;2023-11-21T04:38:10;7.80;99.90
16666;DHT22;8446;50.998;6.250;2023-11-21T04:40:38;7.80;99.90
16666;DHT22;8446;50.998;6.250;2023-11-21T04:43:05;7.80;99.90
16666;DHT22;8446;50.998;6.250;2023-11-21T04:45:32;7.80;99.90
16666;DHT22;8446;50.998;6.250;2023-11-21T04:47:59;7.80;99.90
16666;DHT22;8446;50.998;6.250;2023-11-21T04:50:26;7.80;99.90
16666;DHT22;8446;50.998;6.250;2023-11-21T04:52:53;7.90;99.90
16666;DHT22;8446;50.998;6.250;2023-11-21T04:55:20;7.90;99.90
16666;DHT22;8446;50.998;6.250;2023-11-21T04:57:48;7.80;99.90
16666;DHT22;8446;50.998;6.250;2023-11-21T05:00:15;7.80;99.90
16666;DHT22;8446;50.998;6.250;2023-11-21T05:02:42;7.90;99.90
16666;DHT22;8446;50.998;6.250;2023-11-21T05:05:09;7.90;99.90
16666;DHT22;8446;50.998;6.250;2023-11-21T05:07:36;7.90;99.90
16666;DHT22;8446;50.998;6.250;2023-11-21T05:10:04;7.90;99.90
16666;DHT22;8446;50.998;6.250;2023-11-21T05:12:33;7.90;99.90
16666;DHT22;8446;50.998;6.250;2023-11-21T05:15:04;7.90;99.90
16666;DHT22;8446;50.998;6.250;2023-11-21T05:17:35;7.90;99.90
16666;DHT22;8446;50.998;6.250;2023-11-21T05:20:02;7.90;99.90
16666;DHT22;8446;50.998;6.250;2023-11-21T05:22:34;7.90;99.90
16666;DHT22;8446;50.998;6.250;2023-11-21T05:25:01;7.90;99.90
16666;DHT22;8446;50.998;6.250;2023-11-21T05:27:29;7.90;99.90
16666;DHT22;8446;50.998;6.250;2023-11-21T05:29:56;8.00;99.90
16666;DHT22;8446;50.998;6.250;2023-11-21T05:32:24;8.00;99.90
16666;DHT22;8446;50.998;6.250;2023-11-21T05:34:52;8.00;99.90
16666;DHT22;8446;50.998;6.250;2023-11-21T05:37:19;8.00;99.90
16666;DHT22;8446;50.998;6.250;2023-11-21T05:39:45;8.00;99.90
16666;DHT22;8446;50.998;6.250;2023-11-21T05:42:12;8.00;99.90
16666;DHT22;8446;50.998;6.250;2023-11-21T05:44:42;8.00;99.90
16666;DHT22;8446;50.998;6.250;2023-11-21T05:47:09;8.00;99.90
16666;DHT22;8446;50.998;6.250;2023-11-21T05:49:37;8.00;99.90
16666;DHT22;8446;50.998;6.250;2023-11-21T05:52:05;8.10;99.90
16666;DHT22;8446;50.998;6.250;2023-11-21T05:54:32;8.00;99.90
16666;DHT22;8446;50.998;6.250;2023-11-21T05:56:59;8.00;99.90
16666;DHT22;8446;50.998;6.250;2023-11-21T05:59:26;8.10;99.90
16666;DHT22;8446;50.998;6.250;2023-11-21T06:01:52;8.10;99.90
16666;DHT22;8446;50.998;6.250;2023-11-21T06:04:19;8.10;99.90
16666;DHT22;8446;50.998;6.250;2023-11-21T06:06:51;8.00;99.90
16666;DHT22;8446;50.998;6.250;2023-11-21T06:09:17;8.10;99.90
16666;DHT22;8446;50.998;6.250;2023-11-21T06:11:44;8.10;99.90
16666;DHT22;8446;50.998;6.250;2023-11-21T06:14:11;8.00;99.90
16666;DHT22;8446;50.998;6.250;2023-11-21T06:16:38;8.10;99.90
16666;DHT22;8446;50.998;6.250;2023-11-21T06:19:05;8.10;99.90
16666;DHT22;8446;50.998;6.250;2023-11-21T06:21:32;8.10;99.90
16666;DHT22;8446;50.998;6.250;2023-11-21T06:24:00;8.10;99.90
16666;DHT22;8446;50.998;6.250;2023-11-21T06:26:27;8.10;99.90
16666;DHT22;8446;50.998;6.250;2023-11-21T06:28:54;8.10;99.90
16666;DHT22;8446;50.998;6.250;2023-11-21T06:31:22;8.10;99.90
16666;DHT22;8446;50.998;6.250;2023-11-21T06:33:49;8.10;99.90
16666;DHT22;8446;50.998;6.250;2023-11-21T06:36:17;8.10;99.90
16666;DHT22;8446;50.998;6.250;2023-11-21T06:38:44;8.10;99.90
16666;DHT22;8446;50.998;6.250;2023-11-21T06:41:12;8.10;99.90
16666;DHT22;8446;50.998;6.250;2023-11-21T06:43:40;8.10;99.90
16666;DHT22;8446;50.998;6.250;2023-11-21T06:46:10;8.10;99.90
16666;DHT22;8446;50.998;6.250;2023-11-21T06:48:42;8.10;99.90
16666;DHT22;8446;50.998;6.250;2023-11-21T06:51:08;8.10;99.90
16666;DHT22;8446;50.998;6.250;2023-11-21T06:53:37;8.10;99.90
16666;DHT22;8446;50.998;6.250;2023-11-21T06:56:04;8.10;99.90
16666;DHT22;8446;50.998;6.250;2023-11-21T06:58:34;8.10;99.90
16666;DHT22;8446;50.998;6.250;2023-11-21T07:01:00;8.10;99.90
16666;DHT22;8446;50.998;6.250;2023-11-21T07:03:28;8.10;99.90
16666;DHT22;8446;50.998;6.250;2023-11-21T07:05:55;8.10;99.90
16666;DHT22;8446;50.998;6.250;2023-11-21T07:08:21;8.10;99.90
16666;DHT22;8446;50.998;6.250;2023-11-21T07:10:48;8.10;99.90
16666;DHT22;8446;50.998;6.250;2023-11-21T07:13:15;8.20;99.90
16666;DHT22;8446;50.998;6.250;2023-11-21T07:15:43;8.10;99.90
16666;DHT22;8446;50.998;6.250;2023-11-21T07:18:10;8.10;99.90
16666;DHT22;8446;50.998;6.250;2023-11-21T07:20:37;8.10;99.90
16666;DHT22;8446;50.998;6.250;2023-11-21T07:23:04;8.10;99.90
16666;DHT22;8446;50.998;6.250;2023-11-21T07:25:31;8.20;99.90
16666;DHT22;8446;50.998;6.250;2023-11-21T07:27:59;8.20;99.90
16666;DHT22;8446;50.998;6.250;2023-11-21T07:30:26;8.10;99.90
16666;DHT22;8446;50.998;6.250;2023-11-21T07:32:54;8.20;99.90
16666;DHT22;8446;50.998;6.250;2023-11-21T07:35:21;8.20;99.90
16666;DHT22;8446;50.998;6.250;2023-11-21T07:37:48;8.20;99.90
16666;DHT22;8446;50.998;6.250;2023-11-21T07:40:15;8.20;99.90
16666;DHT22;8446;50.998;6.250;2023-11-21T07:42:42;8.30;99.90
16666;DHT22;8446;50.998;6.250;2023-11-21T07:45:09;8.30;99.90
16666;DHT22;8446;50.998;6.250;2023-11-21T07:47:36;8.30;99.90
16666;DHT22;8446;50.998;6.250;2023-11-21T07:50:07;8.30;99.90
16666;DHT22;8446;50.998;6.250;2023-11-21T07:52:34;8.20;99.90
16666;DHT22;8446;50.998;6.250;2023-11-21T07:55:01;8.30;99.90
16666;DHT22;8446;50.998;6.250;2023-11-21T07:57:28;8.30;99.90
16666;DHT22;8446;50.998;6.250;2023-11-21T07:59:55;8.30;99.90
16666;DHT22;8446;50.998;6.250;2023-11-21T08:02:21;8.30;99.90
16666;DHT22;8446;50.998;6.250;2023-11-21T08:04:48;8.30;99.90
16666;DHT22;8446;50.998;6.250;2023-11-21T08:07:17;8.40;99.90
16666;DHT22;8446;50.998;6.250;2023-11-21T08:09:44;8.40;99.90
16666;DHT22;8446;50.998;6.250;2023-11-21T08:12:12;8.40;99.90
16666;DHT22;8446;50.998;6.250;2023-11-21T08:14:40;8.40;99.90
16666;DHT22;8446;50.998;6.250;2023-11-21T08:17:07;8.50;99.90
16666;DHT22;8446;50.998;6.250;2023-11-21T08:19:35;8.50;99.90
16666;DHT22;8446;50.998;6.250;2023-11-21T08:22:03;8.50;99.90
16666;DHT22;8446;50.998;6.250;2023-11-21T08:24:31;8.60;99.90
16666;DHT22;8446;50.998;6.250;2023-11-21T08:26:58;8.50;99.90
16666;DHT22;8446;50.998;6.250;2023-11-21T08:29:24;8.50;99.90
16666;DHT22;8446;50.998;6.250;2023-11-21T08:31:52;8.60;99.90
16666;DHT22;8446;50.998;6.250;2023-11-21T08:34:19;8.60;99.90
16666;DHT22;8446;50.998;6.250;2023-11-21T08:36:45;8.60;99.90
16666;DHT22;8446;50.998;6.250;2023-11-21T08:39:12;8.60;99.90
16666;DHT22;8446;50.998;6.250;2023-11-21T08:41:43;8.60;99.90
16666;DHT22;8446;50.998;6.250;2023-11-21T08:44:10;8.60;99.90
16666;DHT22;8446;50.998;6.250;2023-11-21T08:46:36;8.60;99.90
16666;DHT22;8446;50.998;6.250;2023-11-21T08:49:04;8.70;99.90
16666;DHT22;8446;50.998;6.250;2023-11-21T08:51:31;8.70;99.90
16666;DHT22;8446;50.998;6.250;2023-11-21T08:53:58;8.70;99.90
16666;DHT22;8446;50.998;6.250;2023-11-21T08:56:27;8.70;99.90
16666;DHT22;8446;50.998;6.250;2023-11-21T08:58:55;8.60;99.90
16666;DHT22;8446;50.998;6.250;2023-11-21T09:01:22;8.70;99.90
16666;DHT22;8446;50.998;6.250;2023-11-21T09:03:50;8.70;99.90
16666;DHT22;8446;50.998;6.250;2023-11-21T09:06:17;8.80;99.90
16666;DHT22;8446;50.998;6.250;2023-11-21T09:08:44;8.80;99.90
16666;DHT22;8446;50.998;6.250;2023-11-21T09:11:11;8.90;99.90
16666;DHT22;8446;50.998;6.250;2023-11-21T09:13:38;8.90;99.90
16666;DHT22;8446;50.998;6.250;2023-11-21T09:16:07;8.90;99.90
16666;DHT22;8446;50.998;6.250;2023-11-21T09:18:33;8.90;99.90
16666;DHT22;8446;50.998;6.250;2023-11-21T09:21:00;8.90;99.90
16666;DHT22;8446;50.998;6.250;2023-11-21T09:23:27;8.90;99.90
16666;DHT22;8446;50.998;6.250;2023-11-21T09:25:54;8.90;99.90
16666;DHT22;8446;50.998;6.250;2023-11-21T09:28:22;9.00;99.90
16666;DHT22;8446;50.998;6.250;2023-11-21T09:30:49;8.90;99.90
16666;DHT22;8446;50.998;6.250;2023-11-21T09:33:17;9.00;99.90
16666;DHT22;8446;50.998;6.250;2023-11-21T09:35:44;9.00;99.90
16666;DHT22;8446;50.998;6.250;2023-11-21T09:38:11;9.00;99.90
16666;DHT22;8446;50.998;6.250;2023-11-21T09:40:38;9.10;99.90
16666;DHT22;8446;50.998;6.250;2023-11-21T09:43:06;9.20;99.90
16666;DHT22;8446;50.998;6.250;2023-11-21T09:45:35;9.20;99.90
16666;DHT22;8446;50.998;6.250;2023-11-21T09:48:02;9.20;99.90
16666;DHT22;8446;50.998;6.250;2023-11-21T09:50:31;9.10;99.90
16666;DHT22;8446;50.998;6.250;2023-11-21T09:53:08;9.20;99.90
16666;DHT22;8446;50.998;6.250;2023-11-21T09:55:42;9.20;99.90
16666;DHT22;8446;50.998;6.250;2023-11-21T09:58:10;9.20;99.90
16666;DHT22;8446;50.998;6.250;2023-11-21T10:00:41;9.30;99.90
16666;DHT22;8446;50.998;6.250;2023-11-21T10:03:08;9.20;99.90
16666;DHT22;8446;50.998;6.250;2023-11-21T10:05:36;9.30;99.90
16666;DHT22;8446;50.998;6.250;2023-11-21T10:08:07;9.30;99.90
16666;DHT22;8446;50.998;6.250;2023-11-21T10:10:35;9.30;99.90
16666;DHT22;8446;50.998;6.250;2023-11-21T10:13:04;9.40;99.90
16666;DHT22;8446;50.998;6.250;2023-11-21T10:15:33;9.40;99.90
16666;DHT22;8446;50.998;6.250;2023-11-21T10:18:02;9.50;99.90
16666;DHT22;8446;50.998;6.250;2023-11-21T10:20:32;9.50;99.90
16666;DHT22;8446;50.998;6.250;2023-11-21T10:23:01;9.60;99.90
16666;DHT22;8446;50.998;6.250;2023-11-21T10:25:29;9.50;99.90
16666;DHT22;8446;50.998;6.250;2023-11-21T10:27:58;9.40;99.90
16666;DHT22;8446;50.998;6.250;2023-11-21T10:30:32;9.40;99.90
16666;DHT22;8446;50.998;6.250;2023-11-21T10:33:02;9.40;99.90
16666;DHT22;8446;50.998;6.250;2023-11-21T10:35:42;9.40;99.90
16666;DHT22;8446;50.998;6.250;2023-11-21T10:38:13;9.50;99.90
16666;DHT22;8446;50.998;6.250;2023-11-21T10:40:40;9.40;99.90
16666;DHT22;8446;50.998;6.250;2023-11-21T10:43:09;9.50;99.90
16666;DHT22;8446;50.998;6.250;2023-11-21T10:45:37;9.50;99.90
16666;DHT22;8446;50.998;6.250;2023-11-21T10:48:05;9.60;99.90
16666;DHT22;8446;50.998;6.250;2023-11-21T10:50:34;9.60;99.90
16666;DHT22;8446;50.998;6.250;2023-11-21T10:53:02;9.60;99.90
16666;DHT22;8446;50.998;6.250;2023-11-21T10:55:32;9.70;99.90
16666;DHT22;8446;50.998;6.250;2023-11-21T10:58:00;9.80;99.90
16666;DHT22;8446;50.998;6.250;2023-11-21T11:00:30;9.80;99.90
16666;DHT22;8446;50.998;6.250;2023-11-21T11:02:57;9.80;99.90
16666;DHT22;8446;50.998;6.250;2023-11-21T11:05:26;9.80;99.90
16666;DHT22;8446;50.998;6.250;2023-11-21T11:07:58;9.90;99.90
16666;DHT22;8446;50.998;6.250;2023-11-21T11:10:27;9.80;99.90
16666;DHT22;8446;50.998;6.250;2023-11-21T11:12:57;9.90;99.90
16666;DHT22;8446;50.998;6.250;2023-11-21T11:15:24;10.00;99.90
16666;DHT22;8446;50.998;6.250;2023-11-21T11:17:52;10.00;99.90
16666;DHT22;8446;50.998;6.250;2023-11-21T11:20:23;9.90;99.90
16666;DHT22;8446;50.998;6.250;2023-11-21T11:23:09;9.90;99.90
16666;DHT22;8446;50.998;6.250;2023-11-21T11:25:52;10.10;99.90
16666;DHT22;8446;50.998;6.250;2023-11-21T11:28:27;9.90;99.90
16666;DHT22;8446;50.998;6.250;2023-11-21T11:31:00;10.00;99.90
16666;DHT22;8446;50.998;6.250;2023-11-21T11:33:36;10.00;99.90
16666;DHT22;8446;50.998;6.250;2023-11-21T11:36:06;10.20;99.90
16666;DHT22;8446;50.998;6.250;2023-11-21T11:38:37;10.20;99.90
16666;DHT22;8446;50.998;6.250;2023-11-21T11:41:05;10.20;99.90
16666;DHT22;8446;50.998;6.250;2023-11-21T11:43:33;10.20;99.90
16666;DHT22;8446;50.998;6.250;2023-11-21T11:46:10;10.30;99.90
16666;DHT22;8446;50.998;6.250;2023-11-21T11:48:39;10.30;99.90
16666;DHT22;8446;50.998;6.250;2023-11-21T11:51:10;10.40;99.90
16666;DHT22;8446;50.998;6.250;2023-11-21T11:53:40;10.50;99.90
16666;DHT22;8446;50.998;6.250;2023-11-21T11:56:25;10.40;99.90
16666;DHT22;8446;50.998;6.250;2023-11-21T11:58:56;10.30;99.90
16666;DHT22;8446;50.998;6.250;2023-11-21T12:01:25;10.40;99.90
16666;DHT22;8446;50.998;6.250;2023-11-21T12:04:25;10.50;99.90
16666;DHT22;8446;50.998;6.250;2023-11-21T12:07:00;10.40;99.90
16666;DHT22;8446;50.998;6.250;2023-11-21T12:09:29;10.40;99.90
16666;DHT22;8446;50.998;6.250;2023-11-21T12:11:57;10.30;99.90
16666;DHT22;8446;50.998;6.250;2023-11-21T12:14:25;10.20;99.90
16666;DHT22;8446;50.998;6.250;2023-11-21T12:16:52;10.20;99.90
16666;DHT22;8446;50.998;6.250;2023-11-21T12:19:20;10.10;99.90
16666;DHT22;8446;50.998;6.250;2023-11-21T12:21:48;10.10;99.90
16666;DHT22;8446;50.998;6.250;2023-11-21T12:24:16;10.20;99.90
16666;DHT22;8446;50.998;6.250;2023-11-21T12:26:43;10.30;99.90
16666;DHT22;8446;50.998;6.250;2023-11-21T12:29:10;10.40;99.90
16666;DHT22;8446;50.998;6.250;2023-11-21T12:31:38;10.40;99.90
16666;DHT22;8446;50.998;6.250;2023-11-21T12:34:06;10.50;99.90
16666;DHT22;8446;50.998;6.250;2023-11-21T12:36:37;10.60;99.90
16666;DHT22;8446;50.998;6.250;2023-11-21T12:39:04;10.60;99.90
16666;DHT22;8446;50.998;6.250;2023-11-21T12:41:30;10.70;99.90
16666;DHT22;8446;50.998;6.250;2023-11-21T12:43:57;10.70;99.90
16666;DHT22;8446;50.998;6.250;2023-11-21T12:46:25;10.70;99.90
16666;DHT22;8446;50.998;6.250;2023-11-21T12:48:56;10.60;99.90
16666;DHT22;8446;50.998;6.250;2023-11-21T12:51:23;10.60;99.90
16666;DHT22;8446;50.998;6.250;2023-11-21T12:53:50;10.60;99.90
16666;DHT22;8446;50.998;6.250;2023-11-21T12:56:18;10.70;99.90
16666;DHT22;8446;50.998;6.250;2023-11-21T12:58:48;10.70;99.90
16666;DHT22;8446;50.998;6.250;2023-11-21T13:01:17;10.70;99.90
16666;DHT22;8446;50.998;6.250;2023-11-21T13:03:46;10.70;99.90
16666;DHT22;8446;50.998;6.250;2023-11-21T13:06:18;10.70;99.90
16666;DHT22;8446;50.998;6.250;2023-11-21T13:08:45;10.60;99.90
16666;DHT22;8446;50.998;6.250;2023-11-21T13:11:13;10.60;99.90
16666;DHT22;8446;50.998;6.250;2023-11-21T13:13:41;10.40;99.90
16666;DHT22;8446;50.998;6.250;2023-11-21T13:16:09;10.40;99.90
16666;DHT22;8446;50.998;6.250;2023-11-21T13:18:37;10.40;99.90
16666;DHT22;8446;50.998;6.250;2023-11-21T13:21:06;10.30;99.90
16666;DHT22;8446;50.998;6.250;2023-11-21T13:23:39;10.30;99.90
16666;DHT22;8446;50.998;6.250;2023-11-21T13:26:07;10.10;99.90
16666;DHT22;8446;50.998;6.250;2023-11-21T13:28:35;10.00;99.90
16666;DHT22;8446;50.998;6.250;2023-11-21T13:31:04;9.90;99.90
16666;DHT22;8446;50.998;6.250;2023-11-21T13:33:41;9.90;99.90
16666;DHT22;8446;50.998;6.250;2023-11-21T13:36:12;9.90;99.90
16666;DHT22;8446;50.998;6.250;2023-11-21T13:38:42;9.90;99.90
16666;DHT22;8446;50.998;6.250;2023-11-21T13:41:11;9.80;99.90
16666;DHT22;8446;50.998;6.250;2023-11-21T13:43:39;9.80;99.90
16666;DHT22;8446;50.998;6.250;2023-11-21T13:46:10;9.80;99.90
16666;DHT22;8446;50.998;6.250;2023-11-21T13:48:40;9.80;99.90
16666;DHT22;8446;50.998;6.250;2023-11-21T13:51:08;9.70;99.90
16666;DHT22;8446;50.998;6.250;2023-11-21T13:53:43;9.60;99.90
16666;DHT22;8446;50.998;6.250;2023-11-21T13:56:12;9.60;99.90
16666;DHT22;8446;50.998;6.250;2023-11-21T13:58:43;9.40;99.90
16666;DHT22;8446;50.998;6.250;2023-11-21T14:01:13;9.50;99.90
16666;DHT22;8446;50.998;6.250;2023-11-21T14:03:58;9.80;99.90
16666;DHT22;8446;50.998;6.250;2023-11-21T14:06:34;9.90;99.90
16666;DHT22;8446;50.998;6.250;2023-11-21T14:09:12;9.90;99.90
16666;DHT22;8446;50.998;6.250;2023-11-21T14:11:50;9.90;99.90
16666;DHT22;8446;50.998;6.250;2023-11-21T14:14:19;10.00;99.90
16666;DHT22;8446;50.998;6.250;2023-11-21T14:16:46;9.90;99.90
16666;DHT22;8446;50.998;6.250;2023-11-21T14:19:13;10.10;99.90
16666;DHT22;8446;50.998;6.250;2023-11-21T14:21:42;10.00;99.90
16666;DHT22;8446;50.998;6.250;2023-11-21T14:24:10;10.00;99.90
16666;DHT22;8446;50.998;6.250;2023-11-21T14:26:40;9.90;99.90
16666;DHT22;8446;50.998;6.250;2023-11-21T14:29:07;10.00;99.90
16666;DHT22;8446;50.998;6.250;2023-11-21T14:31:34;9.80;99.90
16666;DHT22;8446;50.998;6.250;2023-11-21T14:34:01;9.80;99.90
16666;DHT22;8446;50.998;6.250;2023-11-21T14:36:28;9.80;99.90
16666;DHT22;8446;50.998;6.250;2023-11-21T14:38:56;9.90;99.90
16666;DHT22;8446;50.998;6.250;2023-11-21T14:41:22;9.90;99.90
16666;DHT22;8446;50.998;6.250;2023-11-21T14:43:52;9.90;99.90
16666;DHT22;8446;50.998;6.250;2023-11-21T14:46:19;9.90;99.90
16666;DHT22;8446;50.998;6.250;2023-11-21T14:48:46;10.00;99.90
16666;DHT22;8446;50.998;6.250;2023-11-21T14:51:24;10.00;99.90
16666;DHT22;8446;50.998;6.250;2023-11-21T14:53:56;10.00;99.90
16666;DHT22;8446;50.998;6.250;2023-11-21T14:56:26;9.90;99.90
16666;DHT22;8446;50.998;6.250;2023-11-21T14:58:57;9.90;99.90
16666;DHT22;8446;50.998;6.250;2023-11-21T15:01:31;9.90;99.90
16666;DHT22;8446;50.998;6.250;2023-11-21T15:04:09;9.90;99.90
16666;DHT22;8446;50.998;6.250;2023-11-21T15:06:46;9.80;99.90
16666;DHT22;8446;50.998;6.250;2023-11-21T15:09:13;9.90;99.90
16666;DHT22;8446;50.998;6.250;2023-11-21T15:11:57;9.90;99.90
16666;DHT22;8446;50.998;6.250;2023-11-21T15:14:33;9.90;99.90
16666;DHT22;8446;50.998;6.250;2023-11-21T15:17:02;9.80;99.90
16666;DHT22;8446;50.998;6.250;2023-11-21T15:19:30;9.80;99.90
16666;DHT22;8446;50.998;6.250;2023-11-21T15:21:57;9.80;99.90
16666;DHT22;8446;50.998;6.250;2023-11-21T15:24:24;9.80;99.90
16666;DHT22;8446;50.998;6.250;2023-11-21T15:26:51;9.80;99.90
16666;DHT22;8446;50.998;6.250;2023-11-21T15:29:18;9.80;99.90
16666;DHT22;8446;50.998;6.250;2023-11-21T15:31:48;9.80;99.90
16666;DHT22;8446;50.998;6.250;2023-11-21T15:34:15;9.80;99.90
16666;DHT22;8446;50.998;6.250;2023-11-21T15:36:41;9.80;99.90
16666;DHT22;8446;50.998;6.250;2023-11-21T15:39:09;9.80;99.90
16666;DHT22;8446;50.998;6.250;2023-11-21T15:41:37;9.70;99.90
16666;DHT22;8446;50.998;6.250;2023-11-21T15:44:05;9.70;99.90
16666;DHT22;8446;50.998;6.250;2023-11-21T15:46:35;9.70;99.90
16666;DHT22;8446;50.998;6.250;2023-11-21T15:49:04;9.70;99.90
16666;DHT22;8446;50.998;6.250;2023-11-21T15:51:38;9.70;99.90
16666;DHT22;8446;50.998;6.250;2023-11-21T15:54:05;9.70;99.90
16666;DHT22;8446;50.998;6.250;2023-11-21T15:56:33;9.70;99.90
16666;DHT22;8446;50.998;6.250;2023-11-21T15:59:00;9.70;99.90
16666;DHT22;8446;50.998;6.250;2023-11-21T16:01:26;9.60;99.90
16666;DHT22;8446;50.998;6.250;2023-11-21T16:03:53;9.60;99.90
16666;DHT22;8446;50.998;6.250;2023-11-21T16:06:21;9.60;99.90